Time;durP1;ratioP1;P1;durP2;ratioP2;P2;SDS_P1;SDS_P2;PMS_P1;PMS_P2;Temp;Humidity;BMP_temperature;BMP_pressure;BME280_temperature;BME280_humidity;BME280_pressure;Samples;Min_cycle;Max_cycle;Signal;HPM_P1;HPM_P2
2023/08/15 00:00:43;;;;;;;6.68;3.60;;;20.50;99.90;;;;;;5020423;28;20204;-88
2023/08/15 00:03:09;;;;;;;5.50;3.88;;;20.50;99.90;;;;;;5017668;28;20184;-87
2023/08/15 00:05:38;;;;;;;7.53;3.75;;;20.40;99.90;;;;;;5017347;28;20176;-87
2023/08/15 00:08:05;;;;;;;7.43;4.20;;;20.40;99.90;;;;;;5017461;28;20183;-87
2023/08/15 00:10:31;;;;;;;6.20;4.10;;;20.40;99.90;;;;;;5016989;28;20298;-85
2023/08/15 00:12:57;;;;;;;7.80;4.75;;;20.30;99.90;;;;;;5018758;28;20214;-83
2023/08/15 00:15:22;;;;;;;5.25;4.10;;;20.20;99.90;;;;;;5022838;28;20606;-83
2023/08/15 00:17:48;;;;;;;7.25;4.18;;;20.10;99.90;;;;;;5022461;28;20229;-82
2023/08/15 00:20:14;;;;;;;5.93;4.03;;;20.10;99.90;;;;;;5021842;28;20287;-82
2023/08/15 00:22:39;;;;;;;6.68;4.15;;;20.10;99.90;;;;;;5022327;28;20176;-83
2023/08/15 00:25:05;;;;;;;8.15;4.13;;;20.10;99.90;;;;;;5023402;28;20179;-83
2023/08/15 00:27:31;;;;;;;6.45;4.15;;;20.00;99.90;;;;;;5022863;28;20202;-84
2023/08/15 00:29:57;;;;;;;6.25;4.55;;;20.00;99.90;;;;;;5021189;28;20251;-84
2023/08/15 00:32:23;;;;;;;5.60;3.88;;;19.90;99.90;;;;;;5038207;28;20188;-85
2023/08/15 00:34:48;;;;;;;8.40;4.28;;;19.90;99.90;;;;;;5018598;28;20176;-86
2023/08/15 00:37:14;;;;;;;8.80;4.38;;;19.80;99.90;;;;;;5016733;28;20321;-86
2023/08/15 00:39:40;;;;;;;8.73;4.28;;;19.80;99.90;;;;;;5016496;28;20227;-85
2023/08/15 00:42:06;;;;;;;5.40;3.97;;;19.80;99.90;;;;;;5016227;28;20713;-85
2023/08/15 00:44:31;;;;;;;7.50;3.83;;;19.70;99.90;;;;;;5019755;28;20593;-86
2023/08/15 00:46:57;;;;;;;7.60;4.43;;;19.70;99.90;;;;;;5016065;28;20273;-86
2023/08/15 00:49:23;;;;;;;5.45;4.05;;;19.80;99.90;;;;;;5033943;28;20243;-88
2023/08/15 00:51:49;;;;;;;6.07;4.13;;;19.70;99.90;;;;;;5033979;28;20191;-89
2023/08/15 00:54:16;;;;;;;6.97;4.25;;;19.70;99.90;;;;;;5017317;28;20207;-88
2023/08/15 00:56:41;;;;;;;6.00;3.97;;;19.60;99.90;;;;;;5017280;28;20179;-88
2023/08/15 00:59:07;;;;;;;6.97;4.40;;;19.60;99.90;;;;;;5018969;28;20203;-88
2023/08/15 01:01:36;;;;;;;6.10;4.07;;;19.60;99.90;;;;;;5034806;28;20688;-86
2023/08/15 01:04:02;;;;;;;6.50;3.92;;;19.50;99.90;;;;;;5021375;28;20230;-86
2023/08/15 01:06:29;;;;;;;6.57;4.35;;;19.50;99.90;;;;;;5021082;28;20179;-84
2023/08/15 01:08:55;;;;;;;5.43;4.50;;;19.40;99.90;;;;;;5019106;28;20179;-82
2023/08/15 01:11:21;;;;;;;9.43;4.20;;;19.40;99.90;;;;;;5037009;28;20215;-83
2023/08/15 01:14:04;;;;;;;6.07;4.05;;;19.30;99.90;;;;;;5020740;28;20190;-82
2023/08/15 01:16:37;;;;;;;7.50;4.82;;;19.40;99.90;;;;;;5037378;28;20187;-83
2023/08/15 01:19:23;;;;;;;7.25;4.45;;;19.30;99.90;;;;;;5020346;28;20180;-83
2023/08/15 01:21:54;;;;;;;5.25;4.35;;;19.20;99.90;;;;;;5021010;28;20183;-83
2023/08/15 01:24:20;;;;;;;8.35;4.53;;;19.20;99.90;;;;;;5036609;28;20187;-83
2023/08/15 01:26:46;;;;;;;5.10;4.30;;;19.20;99.90;;;;;;5021014;28;20179;-83
2023/08/15 01:29:11;;;;;;;9.57;5.00;;;19.20;99.90;;;;;;5037309;28;20191;-84
2023/08/15 01:31:46;;;;;;;5.82;4.28;;;19.20;99.90;;;;;;5018584;28;20239;-84
2023/08/15 01:34:17;;;;;;;6.93;4.65;;;19.20;99.90;;;;;;5019555;28;20179;-84
2023/08/15 01:36:47;;;;;;;5.47;4.40;;;19.20;99.90;;;;;;5018337;28;20179;-86
2023/08/15 01:39:17;;;;;;;6.00;4.50;;;19.20;99.90;;;;;;5024790;28;20182;-86
2023/08/15 01:41:46;;;;;;;6.13;4.30;;;19.20;99.90;;;;;;5017102;28;20207;-86
2023/08/15 01:44:13;;;;;;;7.15;4.55;;;19.20;99.90;;;;;;5016693;28;20237;-86
2023/08/15 01:46:39;;;;;;;5.15;4.38;;;19.20;99.90;;;;;;5016652;28;20522;-86
2023/08/15 01:49:05;;;;;;;7.25;4.53;;;19.10;99.90;;;;;;5018514;28;20179;-84
2023/08/15 01:51:30;;;;;;;7.90;4.25;;;19.00;99.90;;;;;;5019229;28;20214;-84
2023/08/15 01:53:56;;;;;;;5.22;4.22;;;19.00;99.90;;;;;;5020014;28;20185;-83
2023/08/15 01:56:22;;;;;;;6.15;4.18;;;19.00;99.90;;;;;;5017681;28;20215;-84
2023/08/15 01:58:47;;;;;;;7.53;4.47;;;18.90;99.90;;;;;;5016029;28;20198;-83
2023/08/15 02:01:14;;;;;;;8.18;4.30;;;18.90;99.90;;;;;;5018832;28;20257;-84
2023/08/15 02:03:40;;;;;;;6.95;4.10;;;18.80;99.90;;;;;;5021720;28;20183;-84
2023/08/15 02:06:05;;;;;;;6.00;4.68;;;18.70;99.90;;;;;;5016764;28;20270;-84
2023/08/15 02:08:31;;;;;;;10.27;4.88;;;18.70;99.90;;;;;;5017037;28;20214;-85
2023/08/15 02:10:57;;;;;;;7.70;4.38;;;18.70;99.90;;;;;;5015700;28;20309;-85
2023/08/15 02:13:22;;;;;;;6.25;4.00;;;18.60;99.90;;;;;;5015860;28;20175;-85
2023/08/15 02:15:49;;;;;;;5.55;4.18;;;18.60;99.90;;;;;;5032787;28;20175;-85
2023/08/15 02:18:15;;;;;;;7.65;4.43;;;18.60;99.90;;;;;;5017191;28;20176;-85
2023/08/15 02:20:41;;;;;;;6.13;4.40;;;18.60;99.90;;;;;;5015847;28;20228;-85
2023/08/15 02:23:06;;;;;;;6.00;4.72;;;18.60;99.90;;;;;;5015738;28;20223;-86
2023/08/15 02:25:32;;;;;;;6.25;4.53;;;18.60;99.90;;;;;;5016211;28;20194;-85
2023/08/15 02:27:58;;;;;;;5.25;4.47;;;18.60;99.90;;;;;;5018548;28;20180;-85
2023/08/15 02:30:24;;;;;;;5.70;4.55;;;18.60;99.90;;;;;;5016078;28;20211;-86
2023/08/15 02:32:49;;;;;;;5.82;3.97;;;18.70;99.90;;;;;;5016265;28;20176;-85
2023/08/15 02:35:15;;;;;;;5.47;4.13;;;18.60;99.90;;;;;;5017596;28;20171;-83
2023/08/15 02:37:41;;;;;;;7.00;5.00;;;18.70;99.90;;;;;;5015835;28;20262;-84
2023/08/15 02:40:09;;;;;;;7.85;4.70;;;18.70;99.90;;;;;;5015963;28;20267;-84
2023/08/15 02:42:36;;;;;;;8.10;4.82;;;18.60;99.90;;;;;;5017753;28;20207;-86
2023/08/15 02:45:02;;;;;;;11.13;5.10;;;18.60;99.90;;;;;;5022274;28;20163;-85
2023/08/15 02:47:28;;;;;;;5.93;4.53;;;18.60;99.90;;;;;;5036811;28;20176;-86
2023/08/15 02:49:53;;;;;;;8.02;4.68;;;18.60;99.90;;;;;;5031365;28;20222;-85
2023/08/15 02:52:19;;;;;;;7.15;4.80;;;18.60;99.90;;;;;;5022839;28;20184;-86
2023/08/15 02:54:45;;;;;;;7.65;4.85;;;18.60;99.90;;;;;;5030638;28;20176;-86
2023/08/15 02:57:11;;;;;;;7.18;4.40;;;18.60;99.90;;;;;;5024361;28;20176;-85
2023/08/15 02:59:37;;;;;;;10.13;5.07;;;18.60;99.90;;;;;;5022675;28;20204;-85
2023/08/15 03:02:02;;;;;;;8.20;5.05;;;18.60;99.90;;;;;;5023011;28;20184;-85
2023/08/15 03:04:29;;;;;;;8.20;4.75;;;18.60;99.90;;;;;;5021254;28;20314;-85
2023/08/15 03:06:55;;;;;;;5.97;4.60;;;18.60;99.90;;;;;;5020930;28;20231;-85
2023/08/15 03:09:21;;;;;;;6.35;4.65;;;18.60;99.90;;;;;;5022324;28;20175;-86
2023/08/15 03:11:47;;;;;;;8.25;4.82;;;18.60;99.90;;;;;;5021678;28;20215;-86
2023/08/15 03:14:12;;;;;;;6.97;4.40;;;18.70;99.90;;;;;;5020622;28;20172;-85
2023/08/15 03:16:38;;;;;;;7.45;4.50;;;18.70;99.90;;;;;;5019702;28;20188;-85
2023/08/15 03:19:04;;;;;;;6.53;4.28;;;18.60;99.90;;;;;;5019725;28;20180;-85
2023/08/15 03:21:30;;;;;;;6.45;4.93;;;18.60;99.90;;;;;;5019546;28;20199;-85
2023/08/15 03:23:56;;;;;;;7.20;4.53;;;18.60;99.90;;;;;;5019579;28;20183;-86
2023/08/15 03:26:22;;;;;;;7.15;4.55;;;18.70;99.90;;;;;;5036001;28;20238;-86
2023/08/15 03:28:48;;;;;;;6.50;4.72;;;18.60;99.90;;;;;;5018828;28;20179;-86
2023/08/15 03:31:13;;;;;;;8.85;4.97;;;18.60;99.90;;;;;;5035930;28;20238;-85
2023/08/15 03:33:39;;;;;;;9.70;4.88;;;18.70;99.90;;;;;;5018475;28;20167;-85
2023/08/15 03:36:05;;;;;;;9.82;5.57;;;18.70;99.90;;;;;;5020077;28;20180;-86
2023/08/15 03:38:31;;;;;;;7.95;5.47;;;18.70;99.90;;;;;;5018221;28;20176;-86
2023/08/15 03:41:05;;;;;;;9.23;5.25;;;18.70;99.90;;;;;;5018805;28;20299;-86
2023/08/15 03:43:31;;;;;;;7.68;5.57;;;18.70;99.90;;;;;;5020242;28;20513;-83
2023/08/15 03:45:58;;;;;;;9.23;5.13;;;18.70;99.90;;;;;;5019544;28;20549;-84
2023/08/15 03:48:24;;;;;;;9.57;5.55;;;18.70;99.90;;;;;;5019437;28;20179;-84
2023/08/15 03:50:53;;;;;;;11.95;6.38;;;18.60;99.90;;;;;;5018957;28;20265;-84
2023/08/15 03:53:18;;;;;;;21.67;7.97;;;18.50;99.90;;;;;;5017363;28;20172;-84
2023/08/15 03:55:46;;;;;;;10.55;6.57;;;18.50;99.90;;;;;;5018125;28;20246;-84
2023/08/15 03:58:11;;;;;;;8.25;6.30;;;18.50;99.90;;;;;;5018303;28;20184;-87
2023/08/15 04:00:37;;;;;;;13.38;7.03;;;18.50;99.90;;;;;;5017820;28;20581;-88
2023/08/15 04:03:03;;;;;;;10.68;7.82;;;18.50;99.90;;;;;;5016953;28;20176;-87
2023/08/15 04:05:29;;;;;;;14.05;8.10;;;18.50;99.90;;;;;;5016964;28;20180;-87
2023/08/15 04:07:55;;;;;;;16.65;8.15;;;18.50;99.90;;;;;;5016960;28;20199;-87
2023/08/15 04:10:20;;;;;;;11.57;7.65;;;18.50;99.90;;;;;;5016325;28;20212;-87
2023/08/15 04:12:46;;;;;;;11.40;8.80;;;18.50;99.90;;;;;;5015931;28;20206;-87
2023/08/15 04:15:12;;;;;;;17.33;8.65;;;18.50;99.90;;;;;;5019668;28;20179;-87
2023/08/15 04:17:38;;;;;;;13.30;8.07;;;18.50;99.90;;;;;;5015517;28;20180;-87
2023/08/15 04:20:05;;;;;;;13.25;7.70;;;18.50;99.90;;;;;;5016953;28;20196;-87
2023/08/15 04:22:31;;;;;;;14.68;9.23;;;18.70;99.90;;;;;;5015351;28;20176;-87
2023/08/15 04:24:57;;;;;;;11.07;8.45;;;18.90;99.90;;;;;;5016347;28;20176;-88
2023/08/15 04:27:23;;;;;;;11.52;8.15;;;19.00;99.90;;;;;;5015772;28;20186;-88
2023/08/15 04:29:48;;;;;;;10.50;8.20;;;19.20;99.90;;;;;;5015757;28;20627;-88
2023/08/15 04:32:14;;;;;;;13.82;8.30;;;19.20;99.90;;;;;;5015166;28;20180;-88
2023/08/15 04:34:40;;;;;;;9.40;7.95;;;19.30;99.90;;;;;;5015141;28;20172;-88
2023/08/15 04:37:06;;;;;;;10.05;7.70;;;19.30;99.90;;;;;;5015074;28;20190;-88
2023/08/15 04:39:31;;;;;;;12.73;6.95;;;19.20;99.90;;;;;;5030941;28;20632;-87
2023/08/15 04:41:57;;;;;;;8.63;6.32;;;19.20;99.90;;;;;;5014632;28;20175;-88
2023/08/15 04:44:23;;;;;;;10.98;5.75;;;19.10;99.90;;;;;;5016211;28;20180;-88
2023/08/15 04:46:49;;;;;;;8.77;5.75;;;19.10;99.90;;;;;;5031208;28;20179;-88
2023/08/15 04:49:15;;;;;;;6.90;5.18;;;19.00;99.90;;;;;;5014128;28;20663;-88
2023/08/15 04:51:40;;;;;;;6.63;4.88;;;19.00;99.90;;;;;;5014781;28;20236;-88
2023/08/15 04:54:06;;;;;;;6.95;4.88;;;18.90;99.90;;;;;;5014593;28;20184;-88
2023/08/15 04:56:32;;;;;;;6.20;5.18;;;18.90;99.90;;;;;;5015401;28;20172;-88
2023/08/15 04:58:57;;;;;;;7.00;4.85;;;18.90;99.90;;;;;;5015678;28;20255;-88
2023/08/15 05:01:24;;;;;;;7.85;5.03;;;18.90;99.90;;;;;;5032158;28;20207;-88
2023/08/15 05:03:50;;;;;;;7.47;5.05;;;18.80;99.90;;;;;;5014609;28;20190;-88
2023/08/15 05:06:16;;;;;;;5.82;5.00;;;18.80;99.90;;;;;;5015442;28;20581;-88
2023/08/15 05:08:42;;;;;;;6.20;4.80;;;18.70;99.90;;;;;;5015817;28;20535;-88
2023/08/15 05:11:08;;;;;;;8.77;5.78;;;18.70;99.90;;;;;;5030171;28;20238;-87
2023/08/15 05:13:34;;;;;;;15.07;5.78;;;18.70;99.90;;;;;;5014905;28;20187;-87
2023/08/15 05:16:00;;;;;;;8.00;5.82;;;18.70;99.90;;;;;;5030572;28;20210;-88
2023/08/15 05:18:25;;;;;;;8.43;6.07;;;18.70;99.90;;;;;;5016633;28;20371;-87
2023/08/15 05:20:51;;;;;;;12.20;6.47;;;18.70;99.90;;;;;;5017073;28;20207;-87
2023/08/15 05:23:17;;;;;;;9.57;6.57;;;18.70;99.90;;;;;;5013494;28;20180;-87
2023/08/15 05:25:43;;;;;;;10.63;6.13;;;18.70;99.90;;;;;;5014795;28;20203;-87
2023/08/15 05:28:10;;;;;;;9.85;6.78;;;18.80;99.90;;;;;;5013984;28;20251;-88
2023/08/15 05:30:36;;;;;;;8.75;5.80;;;18.80;99.90;;;;;;5030617;28;20219;-87
2023/08/15 05:33:02;;;;;;;12.30;6.82;;;18.90;99.90;;;;;;5014770;28;20172;-88
2023/08/15 05:35:28;;;;;;;8.35;5.70;;;18.90;99.90;;;;;;5014495;28;20226;-88
2023/08/15 05:37:54;;;;;;;10.45;6.32;;;18.90;99.90;;;;;;5016119;28;20645;-88
2023/08/15 05:40:21;;;;;;;7.80;5.90;;;19.00;99.90;;;;;;5016454;28;20210;-88
2023/08/15 05:42:46;;;;;;;11.75;5.68;;;18.90;99.90;;;;;;5015954;28;20180;-88
2023/08/15 05:45:13;;;;;;;8.23;5.68;;;18.80;99.90;;;;;;5012977;28;20233;-88
2023/08/15 05:47:39;;;;;;;8.07;5.20;;;18.80;99.90;;;;;;5013126;28;20226;-91
2023/08/15 05:50:05;;;;;;;8.25;4.82;;;18.90;99.90;;;;;;5014520;28;20223;-90
2023/08/15 05:52:30;;;;;;;8.80;5.60;;;19.00;99.90;;;;;;5014736;28;20179;-90
2023/08/15 05:54:56;;;;;;;7.53;4.93;;;19.00;99.90;;;;;;5013097;28;20179;-90
2023/08/15 05:57:22;;;;;;;6.57;5.15;;;18.90;99.90;;;;;;5030587;28;20263;-90
2023/08/15 05:59:48;;;;;;;9.50;5.00;;;19.00;99.90;;;;;;5014854;28;20556;-90
2023/08/15 06:02:14;;;;;;;8.20;5.10;;;19.00;99.90;;;;;;5014343;28;20267;-90
2023/08/15 06:04:40;;;;;;;12.18;6.22;;;18.90;99.90;;;;;;5014110;28;20266;-90
2023/08/15 06:07:06;;;;;;;9.93;4.68;;;18.80;99.90;;;;;;5016807;28;20247;-90
2023/08/15 06:09:32;;;;;;;7.65;4.80;;;18.90;99.90;;;;;;5018714;28;20186;-89
2023/08/15 06:11:58;;;;;;;6.28;4.70;;;18.90;99.90;;;;;;5014280;28;20222;-90
2023/08/15 06:14:24;;;;;;;9.40;6.00;;;19.00;99.90;;;;;;5014262;28;20172;-90
2023/08/15 06:16:49;;;;;;;8.10;5.18;;;19.00;99.90;;;;;;5014270;28;20182;-90
2023/08/15 06:19:16;;;;;;;7.63;5.30;;;19.00;99.90;;;;;;5014383;28;20637;-90
2023/08/15 06:21:41;;;;;;;9.68;5.72;;;19.10;99.90;;;;;;5014076;28;20226;-90
2023/08/15 06:24:12;;;;;;;8.05;5.70;;;19.20;99.90;;;;;;5013905;28;20641;-88
2023/08/15 06:26:38;;;;;;;10.13;5.60;;;19.10;99.90;;;;;;5014594;28;20270;-88
2023/08/15 06:29:05;;;;;;;7.53;4.75;;;19.20;99.90;;;;;;5018392;28;20184;-88
2023/08/15 06:31:32;;;;;;;6.82;4.63;;;19.20;99.90;;;;;;5037138;28;20207;-88
2023/08/15 06:33:57;;;;;;;8.15;5.25;;;19.10;99.90;;;;;;5023011;28;20255;-88
2023/08/15 06:36:23;;;;;;;9.60;5.13;;;19.00;99.90;;;;;;5018951;28;20207;-88
2023/08/15 06:38:51;;;;;;;6.65;4.43;;;19.10;99.90;;;;;;5019723;28;20180;-88
2023/08/15 06:41:17;;;;;;;7.80;4.82;;;19.10;99.90;;;;;;5035261;28;20203;-88
2023/08/15 06:43:44;;;;;;;8.55;4.80;;;19.20;99.90;;;;;;5035051;28;20183;-88
2023/08/15 06:46:11;;;;;;;7.70;5.10;;;19.30;99.90;;;;;;5016450;28;20234;-88
2023/08/15 06:48:37;;;;;;;7.95;5.07;;;19.40;99.90;;;;;;5016387;28;20184;-88
2023/08/15 06:51:03;;;;;;;11.27;5.30;;;19.50;99.90;;;;;;5016350;28;20262;-88
2023/08/15 06:53:30;;;;;;;6.35;4.13;;;19.60;99.90;;;;;;5017488;28;20246;-88
2023/08/15 06:55:56;;;;;;;7.07;4.00;;;19.50;99.90;;;;;;5016329;28;20176;-88
2023/08/15 06:58:22;;;;;;;6.20;3.95;;;19.50;99.90;;;;;;5016815;28;20184;-88
2023/08/15 07:00:48;;;;;;;6.22;4.47;;;19.60;99.90;;;;;;5016109;28;20735;-88
2023/08/15 07:03:15;;;;;;;6.20;4.30;;;19.70;99.90;;;;;;5015748;28;20191;-88
2023/08/15 07:05:42;;;;;;;6.05;3.92;;;19.80;99.90;;;;;;5016050;28;20180;-88
2023/08/15 07:08:08;;;;;;;6.57;3.78;;;20.00;99.90;;;;;;5016093;28;20549;-88
2023/08/15 07:10:37;;;;;;;4.15;3.55;;;20.00;99.90;;;;;;5015852;28;20207;-88
2023/08/15 07:13:03;;;;;;;4.68;3.65;;;20.10;99.90;;;;;;5017586;28;20160;-88
2023/08/15 07:15:29;;;;;;;6.28;3.40;;;20.10;99.90;;;;;;5015783;28;20175;-88
2023/08/15 07:17:55;;;;;;;7.43;3.25;;;20.20;99.90;;;;;;5031988;28;20641;-88
2023/08/15 07:20:21;;;;;;;5.05;3.30;;;20.20;99.90;;;;;;5015539;28;20200;-88
2023/08/15 07:22:46;;;;;;;6.05;3.40;;;20.40;99.90;;;;;;5016077;28;20633;-88
2023/08/15 07:25:12;;;;;;;4.25;3.63;;;20.40;99.90;;;;;;5015908;28;20596;-89
2023/08/15 07:27:38;;;;;;;4.97;3.22;;;20.60;99.90;;;;;;5015247;28;20259;-88
2023/08/15 07:30:08;;;;;;;4.32;3.20;;;20.60;99.90;;;;;;5032094;28;20218;-88
2023/08/15 07:32:37;;;;;;;4.70;3.10;;;20.70;99.90;;;;;;5015529;28;20180;-88
2023/08/15 07:35:04;;;;;;;5.80;3.00;;;20.70;99.90;;;;;;5016748;28;20694;-90
2023/08/15 07:37:30;;;;;;;4.95;3.30;;;20.70;99.90;;;;;;5016977;28;20263;-90
2023/08/15 07:40:00;;;;;;;4.00;3.28;;;20.70;99.90;;;;;;5016595;28;20196;-89
2023/08/15 07:42:29;;;;;;;3.17;2.88;;;20.70;99.90;;;;;;5016060;28;20592;-89
2023/08/15 07:44:55;;;;;;;5.88;3.20;;;20.80;99.90;;;;;;5016857;28;20176;-89
2023/08/15 07:47:20;;;;;;;5.00;3.58;;;20.90;99.90;;;;;;5035153;28;20527;-89
2023/08/15 07:49:46;;;;;;;3.60;3.15;;;21.00;99.90;;;;;;5020463;28;20234;-89
2023/08/15 07:52:12;;;;;;;4.47;3.22;;;21.10;99.90;;;;;;5020905;28;20180;-89
2023/08/15 07:54:37;;;;;;;5.97;3.25;;;20.90;99.90;;;;;;5020885;28;20172;-89
2023/08/15 07:57:03;;;;;;;4.43;2.97;;;20.90;99.90;;;;;;5017144;28;20182;-89
2023/08/15 07:59:29;;;;;;;4.38;3.20;;;20.80;99.90;;;;;;5015678;28;20632;-89
2023/08/15 08:01:55;;;;;;;4.15;2.92;;;20.80;99.90;;;;;;5018087;28;20633;-89
2023/08/15 08:04:21;;;;;;;5.15;3.33;;;20.80;99.90;;;;;;5017003;28;20179;-89
2023/08/15 08:06:48;;;;;;;4.35;3.00;;;20.90;99.90;;;;;;5014358;28;20184;-89
2023/08/15 08:09:14;;;;;;;4.20;2.88;;;20.90;99.90;;;;;;5014124;28;20175;-89
2023/08/15 08:11:39;;;;;;;7.60;3.47;;;20.80;99.90;;;;;;5014108;28;20211;-89
2023/08/15 08:14:05;;;;;;;3.58;2.97;;;20.80;99.90;;;;;;5015785;28;20254;-89
2023/08/15 08:16:31;;;;;;;7.32;3.60;;;20.90;99.90;;;;;;5013769;28;20180;-89
2023/08/15 08:18:56;;;;;;;5.50;3.15;;;21.00;99.90;;;;;;5013757;28;20231;-89
2023/08/15 08:21:22;;;;;;;3.45;3.05;;;21.20;99.90;;;;;;5013815;28;20200;-89
2023/08/15 08:23:48;;;;;;;4.25;3.13;;;21.50;99.90;;;;;;5013803;28;20184;-89
2023/08/15 08:26:14;;;;;;;6.47;3.85;;;21.80;99.90;;;;;;5013862;28;20180;-89
2023/08/15 08:28:40;;;;;;;5.93;4.53;;;21.80;99.90;;;;;;5015236;28;20226;-89
2023/08/15 08:31:06;;;;;;;8.05;5.13;;;21.80;99.90;;;;;;5031256;28;20203;-89
2023/08/15 08:33:32;;;;;;;7.63;6.22;;;21.70;99.90;;;;;;5014293;28;20191;-87
2023/08/15 08:35:58;;;;;;;8.82;6.25;;;21.70;99.90;;;;;;5014228;28;20184;-88
2023/08/15 08:38:24;;;;;;;9.05;6.72;;;21.60;99.90;;;;;;5014353;28;20226;-88
2023/08/15 08:40:49;;;;;;;12.07;6.88;;;21.50;99.90;;;;;;5014383;28;20246;-88
2023/08/15 08:43:15;;;;;;;10.50;7.18;;;21.40;99.90;;;;;;5015195;28;20176;-87
2023/08/15 08:45:51;;;;;;;7.85;5.78;;;21.20;99.90;;;;;;5030207;28;20267;-87
2023/08/15 08:48:18;;;;;;;11.13;6.60;;;21.20;99.90;;;;;;5013897;28;20238;-87
2023/08/15 08:50:48;;;;;;;9.73;6.63;;;21.10;99.90;;;;;;5013078;28;20203;-87
2023/08/15 08:53:14;;;;;;;7.15;5.95;;;21.10;99.90;;;;;;5013632;28;20176;-87
2023/08/15 08:55:40;;;;;;;8.77;5.55;;;21.10;99.90;;;;;;5013863;28;20184;-87
2023/08/15 08:58:10;;;;;;;7.60;5.82;;;21.20;99.90;;;;;;5014309;28;20310;-86
2023/08/15 09:00:37;;;;;;;9.82;6.60;;;21.20;99.90;;;;;;5014874;28;20222;-86
2023/08/15 09:03:03;;;;;;;10.55;6.43;;;21.20;99.90;;;;;;5013912;28;20648;-86
2023/08/15 09:05:29;;;;;;;9.32;6.03;;;21.20;99.90;;;;;;5013780;28;20266;-86
2023/08/15 09:07:55;;;;;;;12.50;7.50;;;21.20;99.90;;;;;;5014358;28;20214;-86
2023/08/15 09:10:21;;;;;;;14.20;9.27;;;21.20;99.90;;;;;;5013354;28;20754;-86
2023/08/15 09:12:47;;;;;;;15.13;10.52;;;21.30;99.90;;;;;;5013292;28;20637;-87
2023/08/15 09:15:14;;;;;;;18.60;10.85;;;21.30;99.90;;;;;;5013363;28;20234;-86
2023/08/15 09:17:40;;;;;;;21.38;12.18;;;21.50;99.90;;;;;;5013267;28;20180;-86
2023/08/15 09:20:11;;;;;;;14.27;12.05;;;21.50;99.90;;;;;;5013532;28;20203;-86
2023/08/15 09:22:44;;;;;;;14.13;11.63;;;21.50;99.90;;;;;;5013003;28;20666;-86
2023/08/15 09:25:12;;;;;;;14.00;11.40;;;21.50;99.90;;;;;;5013170;28;20195;-86
2023/08/15 09:27:39;;;;;;;18.35;11.95;;;21.60;99.90;;;;;;5013127;28;20183;-86
2023/08/15 09:30:10;;;;;;;15.15;11.35;;;21.80;99.90;;;;;;5013468;28;20261;-86
2023/08/15 09:32:40;;;;;;;15.93;12.25;;;21.90;99.90;;;;;;5013244;28;20314;-86
2023/08/15 09:35:07;;;;;;;13.82;11.10;;;22.00;99.90;;;;;;5013397;28;20175;-86
2023/08/15 09:37:33;;;;;;;17.65;10.95;;;22.00;99.90;;;;;;5013927;28;20275;-86
2023/08/15 09:40:00;;;;;;;15.98;12.02;;;22.10;99.90;;;;;;5013744;28;20658;-86
2023/08/15 09:42:27;;;;;;;14.60;11.60;;;22.10;99.90;;;;;;5013237;28;20719;-86
2023/08/15 09:44:55;;;;;;;16.10;11.88;;;22.00;99.90;;;;;;5014539;28;20211;-86
2023/08/15 09:47:21;;;;;;;14.40;11.38;;;21.90;99.90;;;;;;5013209;28;20187;-86
2023/08/15 09:49:52;;;;;;;13.13;9.93;;;21.80;99.90;;;;;;5013690;28;20218;-86
2023/08/15 09:52:19;;;;;;;14.23;10.63;;;21.70;99.90;;;;;;5013154;28;20164;-86
2023/08/15 09:54:46;;;;;;;11.73;9.65;;;21.70;99.90;;;;;;5013118;28;20179;-86
2023/08/15 09:57:11;;;;;;;14.52;11.30;;;21.80;99.90;;;;;;5013169;28;20179;-86
2023/08/15 09:59:37;;;;;;;15.27;10.07;;;21.80;99.90;;;;;;5012735;28;20199;-86
2023/08/15 10:02:09;;;;;;;15.15;10.32;;;21.90;99.90;;;;;;5014513;28;20275;-86
2023/08/15 10:04:35;;;;;;;13.77;10.15;;;22.00;99.90;;;;;;5017123;28;20167;-86
2023/08/15 10:07:01;;;;;;;13.45;9.48;;;22.00;99.90;;;;;;5017004;28;20176;-86
2023/08/15 10:09:30;;;;;;;15.70;9.80;;;22.10;99.90;;;;;;5018182;28;20184;-86
2023/08/15 10:11:57;;;;;;;11.85;8.55;;;22.20;99.90;;;;;;5016895;28;20207;-86
2023/08/15 10:14:23;;;;;;;14.82;8.98;;;22.30;99.90;;;;;;5017586;28;20242;-86
2023/08/15 10:16:50;;;;;;;13.07;8.70;;;22.40;99.90;;;;;;5018973;28;20176;-86
2023/08/15 10:19:17;;;;;;;14.40;9.13;;;22.40;99.90;;;;;;5033378;28;20175;-87
2023/08/15 10:21:50;;;;;;;12.95;8.10;;;22.40;99.90;;;;;;5016484;28;20690;-87
2023/08/15 10:24:16;;;;;;;14.43;8.43;;;22.50;99.90;;;;;;5018209;28;20236;-86
2023/08/15 10:26:45;;;;;;;15.32;8.63;;;22.60;99.90;;;;;;5018119;28;20652;-86
2023/08/15 10:29:12;;;;;;;11.65;7.55;;;22.60;99.90;;;;;;5016381;28;20180;-86
2023/08/15 10:31:40;;;;;;;14.38;7.75;;;22.70;99.90;;;;;;5016809;28;20615;-86
2023/08/15 10:34:11;;;;;;;9.95;7.72;;;22.80;99.90;;;;;;5032928;28;20188;-86
2023/08/15 10:36:40;;;;;;;13.02;8.10;;;22.90;99.90;;;;;;5016387;28;20172;-86
2023/08/15 10:39:07;;;;;;;11.32;6.65;;;22.90;99.90;;;;;;5016623;28;20176;-86
2023/08/15 10:41:36;;;;;;;18.77;9.75;;;23.00;99.90;;;;;;5016258;28;20203;-86
2023/08/15 10:44:07;;;;;;;11.98;7.03;;;23.10;99.90;;;;;;5016270;28;20645;-86
2023/08/15 10:46:35;;;;;;;14.38;6.80;;;23.20;99.90;;;;;;5016121;28;20621;-86
2023/08/15 10:49:06;;;;;;;18.63;7.45;;;23.20;99.90;;;;;;5017509;28;20202;-86
2023/08/15 10:51:34;;;;;;;12.43;5.90;;;23.30;99.90;;;;;;5016049;28;20627;-86
2023/08/15 10:54:11;;;;;;;11.77;6.40;;;23.40;99.90;;;;;;5016048;28;20176;-86
2023/08/15 10:56:39;;;;;;;13.02;5.50;;;23.60;99.90;;;;;;5017142;28;20167;-86
2023/08/15 10:59:13;;;;;;;12.70;5.22;;;23.80;99.90;;;;;;5015551;28;20195;-86
2023/08/15 11:01:45;;;;;;;15.07;5.93;;;23.80;99.90;;;;;;5015438;28;20227;-86
2023/08/15 11:04:16;;;;;;;9.32;5.07;;;23.90;99.90;;;;;;5015833;28;20672;-86
2023/08/15 11:06:47;;;;;;;15.98;5.40;;;24.00;99.90;;;;;;5016421;28;20188;-86
2023/08/15 11:09:14;;;;;;;11.52;5.30;;;24.00;99.90;;;;;;5015374;28;20218;-86
2023/08/15 11:11:39;;;;;;;12.23;5.38;;;24.10;99.90;;;;;;5015338;28;20274;-86
2023/08/15 11:14:17;;;;;;;10.65;5.05;;;24.20;99.90;;;;;;5031317;28;20180;-86
2023/08/15 11:16:47;;;;;;;13.32;4.97;;;24.20;99.90;;;;;;5015499;28;20171;-86
2023/08/15 11:19:18;;;;;;;9.52;5.15;;;24.20;1.00;;;;;;5015412;28;20262;-86
2023/08/15 11:21:44;;;;;;;9.82;5.13;;;24.30;99.90;;;;;;5016237;28;20200;-86
2023/08/15 11:24:10;;;;;;;12.43;5.35;;;24.50;99.90;;;;;;5015319;28;20274;-86
2023/08/15 11:26:36;;;;;;;11.02;4.90;;;24.60;92.00;;;;;;5016535;28;20715;-86
2023/08/15 11:29:03;;;;;;;9.10;4.85;;;24.70;99.90;;;;;;5016650;28;20287;-86
2023/08/15 11:31:30;;;;;;;8.50;4.57;;;24.60;1.00;;;;;;5015166;28;20216;-86
2023/08/15 11:33:59;;;;;;;12.85;5.78;;;24.70;99.90;;;;;;5015222;28;20540;-86
2023/08/15 11:36:24;;;;;;;9.90;4.75;;;24.60;99.90;;;;;;5016773;28;20178;-86
2023/08/15 11:38:50;;;;;;;10.40;4.93;;;24.70;99.90;;;;;;5016873;28;20172;-86
2023/08/15 11:41:16;;;;;;;11.75;5.10;;;24.70;99.90;;;;;;5016741;28;20214;-86
2023/08/15 11:43:42;;;;;;;8.95;4.88;;;24.80;51.50;;;;;;5016885;28;20233;-86
2023/08/15 11:46:08;;;;;;;11.27;5.30;;;24.90;1.00;;;;;;5017115;28;20597;-86
2023/08/15 11:48:34;;;;;;;13.93;4.85;;;25.00;99.90;;;;;;5016619;28;20176;-86
2023/08/15 11:51:00;;;;;;;10.38;4.70;;;25.20;1.00;;;;;;5016079;28;20361;-86
2023/08/15 11:53:27;;;;;;;13.38;4.78;;;25.30;1.00;;;;;;5016691;28;20552;-86
2023/08/15 11:55:53;;;;;;;9.02;4.70;;;25.20;1.00;;;;;;5018017;28;20633;-86
2023/08/15 11:58:30;;;;;;;11.27;4.40;;;25.20;1.00;;;;;;5015414;28;20184;-86
2023/08/15 12:01:11;;;;;;;7.80;4.65;;;25.10;1.00;;;;;;5015279;28;20212;-86
2023/08/15 12:03:38;;;;;;;10.18;5.03;;;25.00;1.00;;;;;;5015464;28;20279;-86
2023/08/15 12:06:10;;;;;;;9.88;4.50;;;25.10;1.00;;;;;;5031726;28;20180;-86
2023/08/15 12:08:38;;;;;;;11.35;5.05;;;25.00;1.00;;;;;;5015247;28;20180;-86
2023/08/15 12:11:08;;;;;;;7.53;4.13;;;25.00;1.00;;;;;;5014762;28;20233;-86
2023/08/15 12:13:39;;;;;;;10.32;3.80;;;25.00;99.90;;;;;;5015350;28;20273;-86
2023/08/15 12:16:07;;;;;;;8.48;4.28;;;25.20;99.90;;;;;;5016506;28;20182;-86
2023/08/15 12:18:34;;;;;;;11.52;4.88;;;25.10;99.90;;;;;;5014534;28;20641;-86
2023/08/15 12:21:00;;;;;;;12.65;4.22;;;25.00;1.00;;;;;;5014483;28;20298;-86
2023/08/15 12:23:26;;;;;;;10.20;3.88;;;24.80;1.00;;;;;;5014874;28;20180;-86
2023/08/15 12:25:52;;;;;;;10.95;4.45;;;24.80;1.00;;;;;;5013882;28;20183;-86
2023/08/15 12:28:18;;;;;;;11.50;4.90;;;24.80;1.00;;;;;;5014852;28;20596;-86
2023/08/15 12:30:48;;;;;;;10.15;4.18;;;24.80;1.00;;;;;;5014532;28;20207;-86
2023/08/15 12:33:14;;;;;;;8.13;4.40;;;24.80;1.00;;;;;;5014675;28;20203;-86
2023/08/15 12:35:40;;;;;;;9.93;4.53;;;24.80;1.00;;;;;;5021720;28;20172;-86
2023/08/15 12:38:06;;;;;;;10.48;3.88;;;24.90;21.70;;;;;;5019774;28;20226;-85
2023/08/15 12:40:31;;;;;;;9.23;3.97;;;24.90;1.00;;;;;;5017291;28;20605;-85